sensor_id;sensor_type;location;lat;lon;timestamp;P1;durP1;ratioP1;P2;durP2;ratioP2
60831;SDS011;46665;51.558;-0.448;2023-02-04T00:00:51;4.00;;;2.45;;
60831;SDS011;46665;51.558;-0.448;2023-02-04T00:03:35;9.82;;;2.33;;
60831;SDS011;46665;51.558;-0.448;2023-02-04T00:06:19;3.92;;;2.50;;
60831;SDS011;46665;51.558;-0.448;2023-02-04T00:09:03;6.20;;;2.28;;
60831;SDS011;46665;51.558;-0.448;2023-02-04T00:11:47;6.00;;;3.63;;
60831;SDS011;46665;51.558;-0.448;2023-02-04T00:14:31;2.35;;;2.05;;
60831;SDS011;46665;51.558;-0.448;2023-02-04T00:17:15;5.18;;;1.95;;
60831;SDS011;46665;51.558;-0.448;2023-02-04T00:19:59;2.90;;;1.98;;
60831;SDS011;46665;51.558;-0.448;2023-02-04T00:22:43;5.43;;;2.20;;
60831;SDS011;46665;51.558;-0.448;2023-02-04T00:25:27;4.47;;;3.10;;
60831;SDS011;46665;51.558;-0.448;2023-02-04T00:28:11;3.58;;;2.13;;
60831;SDS011;46665;51.558;-0.448;2023-02-04T00:30:54;12.50;;;2.65;;
60831;SDS011;46665;51.558;-0.448;2023-02-04T00:33:38;3.42;;;1.75;;
60831;SDS011;46665;51.558;-0.448;2023-02-04T00:36:25;4.80;;;2.63;;
60831;SDS011;46665;51.558;-0.448;2023-02-04T00:39:09;3.30;;;2.20;;
60831;SDS011;46665;51.558;-0.448;2023-02-04T00:41:53;2.65;;;2.42;;
60831;SDS011;46665;51.558;-0.448;2023-02-04T00:44:37;6.47;;;2.40;;
60831;SDS011;46665;51.558;-0.448;2023-02-04T00:47:21;5.20;;;2.42;;
60831;SDS011;46665;51.558;-0.448;2023-02-04T00:50:05;2.25;;;1.65;;
60831;SDS011;46665;51.558;-0.448;2023-02-04T00:52:49;9.00;;;2.42;;
60831;SDS011;46665;51.558;-0.448;2023-02-04T00:55:35;4.68;;;2.03;;
60831;SDS011;46665;51.558;-0.448;2023-02-04T00:58:19;2.17;;;1.98;;
60831;SDS011;46665;51.558;-0.448;2023-02-04T01:01:03;3.70;;;1.92;;
60831;SDS011;46665;51.558;-0.448;2023-02-04T01:03:47;3.72;;;2.05;;
60831;SDS011;46665;51.558;-0.448;2023-02-04T01:06:31;3.75;;;1.88;;
60831;SDS011;46665;51.558;-0.448;2023-02-04T01:09:15;4.95;;;2.45;;
60831;SDS011;46665;51.558;-0.448;2023-02-04T01:11:59;8.65;;;2.47;;
60831;SDS011;46665;51.558;-0.448;2023-02-04T01:14:43;3.20;;;2.28;;
60831;SDS011;46665;51.558;-0.448;2023-02-04T01:17:27;3.63;;;2.67;;
60831;SDS011;46665;51.558;-0.448;2023-02-04T01:20:11;8.52;;;2.80;;
60831;SDS011;46665;51.558;-0.448;2023-02-04T01:22:55;3.05;;;1.80;;
60831;SDS011;46665;51.558;-0.448;2023-02-04T01:25:39;2.85;;;2.35;;
60831;SDS011;46665;51.558;-0.448;2023-02-04T01:28:23;9.45;;;2.08;;
60831;SDS011;46665;51.558;-0.448;2023-02-04T01:31:07;10.25;;;3.33;;
60831;SDS011;46665;51.558;-0.448;2023-02-04T01:33:51;6.15;;;2.53;;
60831;SDS011;46665;51.558;-0.448;2023-02-04T01:36:35;4.40;;;2.20;;
60831;SDS011;46665;51.558;-0.448;2023-02-04T01:39:19;5.80;;;2.92;;
60831;SDS011;46665;51.558;-0.448;2023-02-04T01:42:03;6.97;;;2.22;;
60831;SDS011;46665;51.558;-0.448;2023-02-04T01:44:48;4.85;;;2.97;;
60831;SDS011;46665;51.558;-0.448;2023-02-04T01:47:32;2.50;;;1.85;;
60831;SDS011;46665;51.558;-0.448;2023-02-04T01:50:17;4.55;;;2.95;;
60831;SDS011;46665;51.558;-0.448;2023-02-04T01:53:01;2.88;;;2.50;;
60831;SDS011;46665;51.558;-0.448;2023-02-04T01:55:44;5.60;;;3.22;;
60831;SDS011;46665;51.558;-0.448;2023-02-04T01:58:29;4.82;;;2.45;;
60831;SDS011;46665;51.558;-0.448;2023-02-04T02:01:31;3.67;;;2.50;;
60831;SDS011;46665;51.558;-0.448;2023-02-04T02:04:28;5.32;;;3.03;;
60831;SDS011;46665;51.558;-0.448;2023-02-04T02:07:13;2.60;;;2.08;;
60831;SDS011;46665;51.558;-0.448;2023-02-04T02:09:57;4.15;;;3.08;;
60831;SDS011;46665;51.558;-0.448;2023-02-04T02:12:41;3.30;;;2.22;;
60831;SDS011;46665;51.558;-0.448;2023-02-04T02:15:25;3.78;;;2.63;;
60831;SDS011;46665;51.558;-0.448;2023-02-04T02:18:10;3.58;;;3.22;;
60831;SDS011;46665;51.558;-0.448;2023-02-04T02:20:54;6.97;;;3.33;;
60831;SDS011;46665;51.558;-0.448;2023-02-04T02:27:09;4.57;;;2.85;;
60831;SDS011;46665;51.558;-0.448;2023-02-04T02:29:54;5.10;;;2.75;;
60831;SDS011;46665;51.558;-0.448;2023-02-04T02:32:38;3.92;;;3.45;;
60831;SDS011;46665;51.558;-0.448;2023-02-04T02:35:22;3.63;;;2.65;;
60831;SDS011;46665;51.558;-0.448;2023-02-04T02:38:07;11.05;;;3.53;;
60831;SDS011;46665;51.558;-0.448;2023-02-04T02:40:52;5.30;;;3.03;;
60831;SDS011;46665;51.558;-0.448;2023-02-04T02:43:37;9.70;;;3.60;;
60831;SDS011;46665;51.558;-0.448;2023-02-04T02:46:22;10.30;;;4.10;;
60831;SDS011;46665;51.558;-0.448;2023-02-04T02:49:07;3.60;;;2.88;;
60831;SDS011;46665;51.558;-0.448;2023-02-04T02:51:59;10.63;;;3.35;;
60831;SDS011;46665;51.558;-0.448;2023-02-04T02:54:43;4.50;;;2.80;;
60831;SDS011;46665;51.558;-0.448;2023-02-04T02:57:28;2.97;;;2.67;;
60831;SDS011;46665;51.558;-0.448;2023-02-04T03:00:23;5.13;;;3.45;;
60831;SDS011;46665;51.558;-0.448;2023-02-04T03:03:09;4.70;;;3.05;;
60831;SDS011;46665;51.558;-0.448;2023-02-04T03:06:01;4.55;;;3.28;;
60831;SDS011;46665;51.558;-0.448;2023-02-04T03:08:50;9.02;;;3.40;;
60831;SDS011;46665;51.558;-0.448;2023-02-04T03:11:37;4.80;;;3.53;;
60831;SDS011;46665;51.558;-0.448;2023-02-04T03:14:22;7.28;;;3.00;;
60831;SDS011;46665;51.558;-0.448;2023-02-04T03:17:08;5.20;;;3.58;;
60831;SDS011;46665;51.558;-0.448;2023-02-04T03:19:53;5.18;;;3.50;;
60831;SDS011;46665;51.558;-0.448;2023-02-04T03:22:37;7.65;;;3.88;;
60831;SDS011;46665;51.558;-0.448;2023-02-04T03:25:21;4.18;;;3.00;;
60831;SDS011;46665;51.558;-0.448;2023-02-04T03:28:09;6.80;;;3.63;;
60831;SDS011;46665;51.558;-0.448;2023-02-04T03:30:52;3.35;;;2.85;;
60831;SDS011;46665;51.558;-0.448;2023-02-04T03:33:38;3.38;;;2.88;;
60831;SDS011;46665;51.558;-0.448;2023-02-04T03:36:22;3.58;;;3.05;;
60831;SDS011;46665;51.558;-0.448;2023-02-04T03:39:06;9.38;;;3.40;;
60831;SDS011;46665;51.558;-0.448;2023-02-04T03:41:50;2.85;;;2.60;;
60831;SDS011;46665;51.558;-0.448;2023-02-04T03:44:33;3.83;;;2.72;;
60831;SDS011;46665;51.558;-0.448;2023-02-04T03:47:17;5.68;;;2.90;;
60831;SDS011;46665;51.558;-0.448;2023-02-04T03:50:01;6.47;;;3.25;;
60831;SDS011;46665;51.558;-0.448;2023-02-04T03:52:46;6.82;;;3.85;;
60831;SDS011;46665;51.558;-0.448;2023-02-04T03:55:32;8.50;;;3.53;;
60831;SDS011;46665;51.558;-0.448;2023-02-04T03:58:16;3.53;;;2.85;;
60831;SDS011;46665;51.558;-0.448;2023-02-04T04:01:00;4.03;;;2.78;;
60831;SDS011;46665;51.558;-0.448;2023-02-04T04:03:44;13.50;;;3.35;;
60831;SDS011;46665;51.558;-0.448;2023-02-04T04:06:28;4.47;;;2.72;;
60831;SDS011;46665;51.558;-0.448;2023-02-04T04:09:12;4.50;;;2.92;;
60831;SDS011;46665;51.558;-0.448;2023-02-04T04:11:56;6.18;;;3.00;;
60831;SDS011;46665;51.558;-0.448;2023-02-04T04:14:40;2.50;;;2.30;;
60831;SDS011;46665;51.558;-0.448;2023-02-04T04:17:24;12.27;;;4.05;;
60831;SDS011;46665;51.558;-0.448;2023-02-04T04:20:08;3.30;;;3.00;;
60831;SDS011;46665;51.558;-0.448;2023-02-04T04:22:52;6.68;;;3.30;;
60831;SDS011;46665;51.558;-0.448;2023-02-04T04:25:36;3.10;;;2.78;;
60831;SDS011;46665;51.558;-0.448;2023-02-04T04:28:20;6.63;;;3.13;;
60831;SDS011;46665;51.558;-0.448;2023-02-04T04:31:04;2.97;;;2.67;;
60831;SDS011;46665;51.558;-0.448;2023-02-04T04:33:48;6.25;;;2.95;;
60831;SDS011;46665;51.558;-0.448;2023-02-04T04:36:32;2.85;;;2.63;;
60831;SDS011;46665;51.558;-0.448;2023-02-04T04:39:16;4.40;;;2.72;;
60831;SDS011;46665;51.558;-0.448;2023-02-04T04:42:00;3.22;;;2.88;;
60831;SDS011;46665;51.558;-0.448;2023-02-04T04:44:44;5.63;;;2.70;;
60831;SDS011;46665;51.558;-0.448;2023-02-04T04:47:28;5.05;;;3.25;;
60831;SDS011;46665;51.558;-0.448;2023-02-04T04:50:12;5.45;;;2.47;;
60831;SDS011;46665;51.558;-0.448;2023-02-04T04:52:56;5.07;;;2.42;;
60831;SDS011;46665;51.558;-0.448;2023-02-04T04:55:39;7.70;;;2.88;;
60831;SDS011;46665;51.558;-0.448;2023-02-04T04:58:24;3.00;;;2.38;;
60831;SDS011;46665;51.558;-0.448;2023-02-04T05:01:07;6.38;;;2.38;;
60831;SDS011;46665;51.558;-0.448;2023-02-04T05:03:51;6.93;;;2.97;;
60831;SDS011;46665;51.558;-0.448;2023-02-04T05:06:35;2.42;;;2.10;;
60831;SDS011;46665;51.558;-0.448;2023-02-04T05:09:19;6.60;;;2.53;;
60831;SDS011;46665;51.558;-0.448;2023-02-04T05:12:03;2.15;;;1.95;;
60831;SDS011;46665;51.558;-0.448;2023-02-04T05:14:48;1.60;;;1.50;;
60831;SDS011;46665;51.558;-0.448;2023-02-04T05:17:31;2.13;;;1.77;;
60831;SDS011;46665;51.558;-0.448;2023-02-04T05:20:15;3.03;;;2.08;;
60831;SDS011;46665;51.558;-0.448;2023-02-04T05:23:00;2.92;;;2.30;;
60831;SDS011;46665;51.558;-0.448;2023-02-04T05:25:44;8.85;;;2.33;;
60831;SDS011;46665;51.558;-0.448;2023-02-04T05:28:28;4.53;;;2.05;;
60831;SDS011;46665;51.558;-0.448;2023-02-04T05:31:12;2.05;;;1.85;;
60831;SDS011;46665;51.558;-0.448;2023-02-04T05:33:56;1.67;;;1.58;;
60831;SDS011;46665;51.558;-0.448;2023-02-04T05:36:40;2.97;;;2.17;;
60831;SDS011;46665;51.558;-0.448;2023-02-04T05:39:24;3.20;;;2.05;;
60831;SDS011;46665;51.558;-0.448;2023-02-04T05:42:08;5.47;;;2.22;;
60831;SDS011;46665;51.558;-0.448;2023-02-04T05:44:52;5.05;;;2.00;;
60831;SDS011;46665;51.558;-0.448;2023-02-04T05:47:35;3.88;;;2.10;;
60831;SDS011;46665;51.558;-0.448;2023-02-04T05:50:19;9.20;;;2.42;;
60831;SDS011;46665;51.558;-0.448;2023-02-04T05:53:03;4.63;;;1.92;;
60831;SDS011;46665;51.558;-0.448;2023-02-04T05:55:47;3.70;;;2.90;;
60831;SDS011;46665;51.558;-0.448;2023-02-04T05:58:31;3.33;;;1.92;;
60831;SDS011;46665;51.558;-0.448;2023-02-04T06:01:18;2.60;;;2.00;;
60831;SDS011;46665;51.558;-0.448;2023-02-04T06:04:02;3.78;;;2.42;;
60831;SDS011;46665;51.558;-0.448;2023-02-04T06:06:46;3.03;;;2.20;;
60831;SDS011;46665;51.558;-0.448;2023-02-04T06:09:30;2.22;;;1.75;;
60831;SDS011;46665;51.558;-0.448;2023-02-04T06:12:14;2.25;;;2.00;;
60831;SDS011;46665;51.558;-0.448;2023-02-04T06:14:58;2.83;;;1.40;;
60831;SDS011;46665;51.558;-0.448;2023-02-04T06:17:42;3.42;;;2.08;;
60831;SDS011;46665;51.558;-0.448;2023-02-04T06:20:26;2.30;;;2.10;;
60831;SDS011;46665;51.558;-0.448;2023-02-04T06:23:10;1.60;;;1.50;;
60831;SDS011;46665;51.558;-0.448;2023-02-04T06:25:54;2.72;;;1.65;;
60831;SDS011;46665;51.558;-0.448;2023-02-04T06:28:38;3.83;;;1.92;;
60831;SDS011;46665;51.558;-0.448;2023-02-04T06:31:22;1.50;;;1.40;;
60831;SDS011;46665;51.558;-0.448;2023-02-04T06:34:06;2.55;;;1.73;;
60831;SDS011;46665;51.558;-0.448;2023-02-04T06:36:49;2.03;;;1.92;;
60831;SDS011;46665;51.558;-0.448;2023-02-04T06:39:34;2.50;;;2.03;;
60831;SDS011;46665;51.558;-0.448;2023-02-04T06:42:18;2.05;;;1.95;;
60831;SDS011;46665;51.558;-0.448;2023-02-04T06:45:02;2.75;;;1.33;;
60831;SDS011;46665;51.558;-0.448;2023-02-04T06:47:46;1.50;;;1.40;;
60831;SDS011;46665;51.558;-0.448;2023-02-04T06:50:30;8.07;;;2.00;;
60831;SDS011;46665;51.558;-0.448;2023-02-04T06:53:14;2.47;;;1.88;;
60831;SDS011;46665;51.558;-0.448;2023-02-04T06:55:58;7.00;;;2.13;;
60831;SDS011;46665;51.558;-0.448;2023-02-04T06:58:42;2.50;;;1.90;;
60831;SDS011;46665;51.558;-0.448;2023-02-04T07:01:26;2.28;;;1.85;;
60831;SDS011;46665;51.558;-0.448;2023-02-04T07:04:10;2.92;;;1.88;;
60831;SDS011;46665;51.558;-0.448;2023-02-04T07:06:54;3.55;;;2.75;;
60831;SDS011;46665;51.558;-0.448;2023-02-04T07:09:38;2.97;;;1.98;;
60831;SDS011;46665;51.558;-0.448;2023-02-04T07:12:23;1.70;;;1.20;;
60831;SDS011;46665;51.558;-0.448;2023-02-04T07:15:07;2.75;;;2.33;;
60831;SDS011;46665;51.558;-0.448;2023-02-04T07:17:51;1.60;;;1.50;;
60831;SDS011;46665;51.558;-0.448;2023-02-04T07:20:36;1.50;;;1.40;;
60831;SDS011;46665;51.558;-0.448;2023-02-04T07:23:20;1.88;;;1.27;;
60831;SDS011;46665;51.558;-0.448;2023-02-04T07:26:04;2.28;;;1.63;;
60831;SDS011;46665;51.558;-0.448;2023-02-04T07:28:48;1.45;;;1.35;;
60831;SDS011;46665;51.558;-0.448;2023-02-04T07:31:32;3.40;;;1.90;;
60831;SDS011;46665;51.558;-0.448;2023-02-04T07:34:16;2.63;;;1.98;;
60831;SDS011;46665;51.558;-0.448;2023-02-04T07:37:01;1.42;;;1.33;;
60831;SDS011;46665;51.558;-0.448;2023-02-04T07:39:45;1.65;;;1.55;;
60831;SDS011;46665;51.558;-0.448;2023-02-04T07:42:29;2.03;;;1.52;;
60831;SDS011;46665;51.558;-0.448;2023-02-04T07:45:13;3.38;;;1.58;;
60831;SDS011;46665;51.558;-0.448;2023-02-04T07:47:56;1.40;;;1.30;;
60831;SDS011;46665;51.558;-0.448;2023-02-04T07:50:40;2.88;;;1.33;;
60831;SDS011;46665;51.558;-0.448;2023-02-04T07:53:24;1.77;;;1.45;;
60831;SDS011;46665;51.558;-0.448;2023-02-04T07:56:08;1.70;;;1.60;;
60831;SDS011;46665;51.558;-0.448;2023-02-04T07:58:53;3.40;;;1.35;;
60831;SDS011;46665;51.558;-0.448;2023-02-04T08:01:37;3.53;;;1.90;;
60831;SDS011;46665;51.558;-0.448;2023-02-04T08:04:21;2.53;;;1.85;;
60831;SDS011;46665;51.558;-0.448;2023-02-04T08:07:05;1.95;;;1.60;;
60831;SDS011;46665;51.558;-0.448;2023-02-04T08:09:48;2.88;;;1.77;;
60831;SDS011;46665;51.558;-0.448;2023-02-04T08:12:32;1.60;;;1.50;;
60831;SDS011;46665;51.558;-0.448;2023-02-04T08:15:16;1.70;;;1.60;;
60831;SDS011;46665;51.558;-0.448;2023-02-04T08:18:01;1.48;;;1.38;;
60831;SDS011;46665;51.558;-0.448;2023-02-04T08:20:45;1.40;;;1.27;;
60831;SDS011;46665;51.558;-0.448;2023-02-04T08:23:29;1.70;;;1.33;;
60831;SDS011;46665;51.558;-0.448;2023-02-04T08:26:13;1.02;;;1.02;;
60831;SDS011;46665;51.558;-0.448;2023-02-04T08:28:57;2.05;;;1.52;;
60831;SDS011;46665;51.558;-0.448;2023-02-04T08:31:41;1.65;;;1.25;;
60831;SDS011;46665;51.558;-0.448;2023-02-04T08:34:25;1.70;;;1.60;;
60831;SDS011;46665;51.558;-0.448;2023-02-04T08:37:09;1.90;;;1.70;;
60831;SDS011;46665;51.558;-0.448;2023-02-04T08:39:53;1.42;;;1.33;;
60831;SDS011;46665;51.558;-0.448;2023-02-04T08:42:36;1.77;;;1.27;;
60831;SDS011;46665;51.558;-0.448;2023-02-04T08:45:21;1.60;;;1.50;;
60831;SDS011;46665;51.558;-0.448;2023-02-04T08:48:05;1.48;;;1.30;;
60831;SDS011;46665;51.558;-0.448;2023-02-04T08:50:50;1.52;;;1.42;;
60831;SDS011;46665;51.558;-0.448;2023-02-04T08:53:34;1.10;;;1.00;;
60831;SDS011;46665;51.558;-0.448;2023-02-04T08:56:18;1.20;;;1.10;;
60831;SDS011;46665;51.558;-0.448;2023-02-04T08:59:03;2.78;;;1.23;;
60831;SDS011;46665;51.558;-0.448;2023-02-04T09:01:47;0.70;;;0.70;;
60831;SDS011;46665;51.558;-0.448;2023-02-04T09:04:32;1.90;;;0.80;;
60831;SDS011;46665;51.558;-0.448;2023-02-04T09:07:16;1.00;;;0.70;;
60831;SDS011;46665;51.558;-0.448;2023-02-04T09:10:00;0.80;;;0.80;;
60831;SDS011;46665;51.558;-0.448;2023-02-04T09:12:44;1.40;;;0.73;;
60831;SDS011;46665;51.558;-0.448;2023-02-04T09:15:28;0.50;;;0.50;;
60831;SDS011;46665;51.558;-0.448;2023-02-04T09:18:13;2.00;;;0.70;;
60831;SDS011;46665;51.558;-0.448;2023-02-04T09:21:01;2.97;;;1.10;;
60831;SDS011;46665;51.558;-0.448;2023-02-04T09:23:45;0.40;;;0.40;;
60831;SDS011;46665;51.558;-0.448;2023-02-04T09:26:29;4.07;;;0.60;;
60831;SDS011;46665;51.558;-0.448;2023-02-04T09:29:13;0.40;;;0.40;;
60831;SDS011;46665;51.558;-0.448;2023-02-04T09:31:57;1.50;;;0.70;;
60831;SDS011;46665;51.558;-0.448;2023-02-04T09:34:41;2.47;;;0.80;;
60831;SDS011;46665;51.558;-0.448;2023-02-04T09:37:25;0.60;;;0.60;;
60831;SDS011;46665;51.558;-0.448;2023-02-04T09:40:15;0.82;;;0.82;;
60831;SDS011;46665;51.558;-0.448;2023-02-04T09:43:01;0.82;;;0.82;;
60831;SDS011;46665;51.558;-0.448;2023-02-04T09:45:47;1.83;;;0.90;;
60831;SDS011;46665;51.558;-0.448;2023-02-04T09:48:32;1.10;;;0.82;;
60831;SDS011;46665;51.558;-0.448;2023-02-04T09:51:17;1.75;;;0.70;;
60831;SDS011;46665;51.558;-0.448;2023-02-04T09:54:07;0.90;;;0.90;;
60831;SDS011;46665;51.558;-0.448;2023-02-04T09:56:55;0.60;;;0.60;;
60831;SDS011;46665;51.558;-0.448;2023-02-04T09:59:42;1.67;;;0.70;;
60831;SDS011;46665;51.558;-0.448;2023-02-04T10:02:27;3.03;;;0.65;;
60831;SDS011;46665;51.558;-0.448;2023-02-04T10:05:15;0.77;;;0.70;;
60831;SDS011;46665;51.558;-0.448;2023-02-04T10:08:08;1.30;;;0.70;;
60831;SDS011;46665;51.558;-0.448;2023-02-04T10:10:57;0.70;;;0.70;;
60831;SDS011;46665;51.558;-0.448;2023-02-04T10:13:45;2.03;;;0.80;;
60831;SDS011;46665;51.558;-0.448;2023-02-04T10:16:34;0.60;;;0.60;;
60831;SDS011;46665;51.558;-0.448;2023-02-04T10:19:20;0.80;;;0.80;;
60831;SDS011;46665;51.558;-0.448;2023-02-04T10:22:09;0.50;;;0.50;;
60831;SDS011;46665;51.558;-0.448;2023-02-04T10:24:59;0.73;;;0.68;;
60831;SDS011;46665;51.558;-0.448;2023-02-04T10:27:57;4.90;;;0.73;;
60831;SDS011;46665;51.558;-0.448;2023-02-04T10:30:43;0.80;;;0.80;;
60831;SDS011;46665;51.558;-0.448;2023-02-04T10:33:26;1.67;;;0.80;;
60831;SDS011;46665;51.558;-0.448;2023-02-04T10:36:11;0.80;;;0.80;;
60831;SDS011;46665;51.558;-0.448;2023-02-04T10:38:59;1.00;;;1.00;;
60831;SDS011;46665;51.558;-0.448;2023-02-04T10:41:48;0.90;;;0.90;;
60831;SDS011;46665;51.558;-0.448;2023-02-04T10:44:35;1.02;;;0.63;;
60831;SDS011;46665;51.558;-0.448;2023-02-04T10:47:22;1.08;;;0.73;;
60831;SDS011;46665;51.558;-0.448;2023-02-04T10:50:16;1.23;;;0.65;;
60831;SDS011;46665;51.558;-0.448;2023-02-04T10:53:01;1.27;;;1.10;;
60831;SDS011;46665;51.558;-0.448;2023-02-04T10:56:25;0.82;;;0.80;;
60831;SDS011;46665;51.558;-0.448;2023-02-04T10:59:12;0.88;;;0.80;;
60831;SDS011;46665;51.558;-0.448;2023-02-04T11:02:40;0.93;;;0.77;;
60831;SDS011;46665;51.558;-0.448;2023-02-04T11:05:35;0.70;;;0.70;;
60831;SDS011;46665;51.558;-0.448;2023-02-04T11:08:21;0.88;;;0.88;;
60831;SDS011;46665;51.558;-0.448;2023-02-04T11:11:13;0.77;;;0.77;;
60831;SDS011;46665;51.558;-0.448;2023-02-04T11:14:00;3.60;;;0.90;;
60831;SDS011;46665;51.558;-0.448;2023-02-04T11:16:46;1.58;;;0.90;;
60831;SDS011;46665;51.558;-0.448;2023-02-04T11:19:38;1.65;;;0.90;;
60831;SDS011;46665;51.558;-0.448;2023-02-04T11:22:23;2.60;;;1.08;;
60831;SDS011;46665;51.558;-0.448;2023-02-04T11:25:33;0.70;;;0.70;;
60831;SDS011;46665;51.558;-0.448;2023-02-04T11:28:25;7.53;;;1.42;;
60831;SDS011;46665;51.558;-0.448;2023-02-04T11:31:23;1.55;;;0.85;;
60831;SDS011;46665;51.558;-0.448;2023-02-04T11:39:51;2.67;;;0.90;;
60831;SDS011;46665;51.558;-0.448;2023-02-04T11:42:39;1.55;;;1.05;;
60831;SDS011;46665;51.558;-0.448;2023-02-04T11:45:34;0.82;;;0.70;;
60831;SDS011;46665;51.558;-0.448;2023-02-04T11:48:19;10.05;;;1.45;;
60831;SDS011;46665;51.558;-0.448;2023-02-04T11:51:11;1.65;;;0.75;;
60831;SDS011;46665;51.558;-0.448;2023-02-04T11:53:58;2.53;;;0.90;;
60831;SDS011;46665;51.558;-0.448;2023-02-04T11:56:43;0.60;;;0.60;;
60831;SDS011;46665;51.558;-0.448;2023-02-04T11:59:30;7.60;;;1.40;;
60831;SDS011;46665;51.558;-0.448;2023-02-04T12:02:16;2.05;;;1.02;;
60831;SDS011;46665;51.558;-0.448;2023-02-04T12:05:09;4.18;;;1.40;;
60831;SDS011;46665;51.558;-0.448;2023-02-04T12:08:07;4.72;;;1.40;;
60831;SDS011;46665;51.558;-0.448;2023-02-04T12:11:01;8.95;;;1.13;;
60831;SDS011;46665;51.558;-0.448;2023-02-04T12:16:45;1.13;;;0.70;;
60831;SDS011;46665;51.558;-0.448;2023-02-04T12:19:30;2.75;;;0.75;;
60831;SDS011;46665;51.558;-0.448;2023-02-04T12:22:14;1.85;;;1.00;;
60831;SDS011;46665;51.558;-0.448;2023-02-04T12:24:58;3.83;;;0.88;;
60831;SDS011;46665;51.558;-0.448;2023-02-04T12:27:42;1.38;;;0.80;;
60831;SDS011;46665;51.558;-0.448;2023-02-04T12:33:01;1.20;;;0.80;;
60831;SDS011;46665;51.558;-0.448;2023-02-04T12:35:45;3.15;;;1.70;;
60831;SDS011;46665;51.558;-0.448;2023-02-04T12:38:29;0.57;;;0.57;;
60831;SDS011;46665;51.558;-0.448;2023-02-04T12:41:13;4.78;;;0.80;;
60831;SDS011;46665;51.558;-0.448;2023-02-04T12:43:57;1.98;;;0.68;;
60831;SDS011;46665;51.558;-0.448;2023-02-04T12:46:44;2.67;;;0.73;;
60831;SDS011;46665;51.558;-0.448;2023-02-04T12:49:28;0.73;;;0.65;;
60831;SDS011;46665;51.558;-0.448;2023-02-04T12:52:12;5.68;;;0.80;;
60831;SDS011;46665;51.558;-0.448;2023-02-04T12:54:56;0.60;;;0.60;;
60831;SDS011;46665;51.558;-0.448;2023-02-04T12:57:42;3.43;;;0.83;;
60831;SDS011;46665;51.558;-0.448;2023-02-04T13:00:26;4.95;;;1.17;;
60831;SDS011;46665;51.558;-0.448;2023-02-04T13:03:10;6.55;;;1.15;;
60831;SDS011;46665;51.558;-0.448;2023-02-04T13:05:54;0.40;;;0.40;;
60831;SDS011;46665;51.558;-0.448;2023-02-04T13:08:39;3.33;;;1.25;;
60831;SDS011;46665;51.558;-0.448;2023-02-04T13:11:23;1.52;;;1.08;;
60831;SDS011;46665;51.558;-0.448;2023-02-04T13:14:07;1.80;;;1.20;;
60831;SDS011;46665;51.558;-0.448;2023-02-04T13:16:51;1.75;;;0.93;;
60831;SDS011;46665;51.558;-0.448;2023-02-04T13:19:35;2.50;;;1.10;;
60831;SDS011;46665;51.558;-0.448;2023-02-04T13:22:20;1.55;;;1.17;;
60831;SDS011;46665;51.558;-0.448;2023-02-04T13:25:05;2.67;;;1.30;;
60831;SDS011;46665;51.558;-0.448;2023-02-04T13:27:49;0.90;;;0.70;;
60831;SDS011;46665;51.558;-0.448;2023-02-04T13:30:33;3.00;;;1.17;;
60831;SDS011;46665;51.558;-0.448;2023-02-04T13:33:17;1.15;;;0.85;;
60831;SDS011;46665;51.558;-0.448;2023-02-04T13:36:01;1.20;;;0.98;;
60831;SDS011;46665;51.558;-0.448;2023-02-04T13:38:45;5.50;;;0.90;;
60831;SDS011;46665;51.558;-0.448;2023-02-04T13:41:29;1.30;;;0.70;;
60831;SDS011;46665;51.558;-0.448;2023-02-04T13:44:13;1.23;;;0.68;;
60831;SDS011;46665;51.558;-0.448;2023-02-04T13:46:57;1.02;;;0.82;;
60831;SDS011;46665;51.558;-0.448;2023-02-04T13:49:41;0.50;;;0.50;;
60831;SDS011;46665;51.558;-0.448;2023-02-04T13:52:25;1.95;;;1.05;;
60831;SDS011;46665;51.558;-0.448;2023-02-04T13:55:09;0.95;;;0.80;;
60831;SDS011;46665;51.558;-0.448;2023-02-04T13:57:53;2.25;;;1.20;;
60831;SDS011;46665;51.558;-0.448;2023-02-04T14:00:37;3.75;;;1.50;;
60831;SDS011;46665;51.558;-0.448;2023-02-04T14:03:25;1.75;;;1.00;;
60831;SDS011;46665;51.558;-0.448;2023-02-04T14:06:09;0.80;;;0.70;;
60831;SDS011;46665;51.558;-0.448;2023-02-04T14:08:53;0.88;;;0.70;;
60831;SDS011;46665;51.558;-0.448;2023-02-04T14:11:37;2.00;;;0.70;;
60831;SDS011;46665;51.558;-0.448;2023-02-04T14:14:22;0.85;;;0.60;;
60831;SDS011;46665;51.558;-0.448;2023-02-04T14:17:06;9.52;;;0.95;;
60831;SDS011;46665;51.558;-0.448;2023-02-04T14:19:50;2.17;;;0.50;;
60831;SDS011;46665;51.558;-0.448;2023-02-04T14:22:34;0.40;;;0.40;;
60831;SDS011;46665;51.558;-0.448;2023-02-04T14:25:19;0.68;;;0.68;;
60831;SDS011;46665;51.558;-0.448;2023-02-04T14:28:03;1.05;;;0.60;;
60831;SDS011;46665;51.558;-0.448;2023-02-04T14:30:48;0.65;;;0.60;;
60831;SDS011;46665;51.558;-0.448;2023-02-04T14:33:32;1.08;;;0.75;;
60831;SDS011;46665;51.558;-0.448;2023-02-04T14:36:16;0.55;;;0.55;;
60831;SDS011;46665;51.558;-0.448;2023-02-04T14:39:00;1.23;;;0.60;;
60831;SDS011;46665;51.558;-0.448;2023-02-04T14:41:44;0.52;;;0.47;;
60831;SDS011;46665;51.558;-0.448;2023-02-04T14:44:28;1.20;;;0.65;;
60831;SDS011;46665;51.558;-0.448;2023-02-04T14:47:12;2.03;;;0.77;;
60831;SDS011;46665;51.558;-0.448;2023-02-04T14:49:56;0.45;;;0.45;;
60831;SDS011;46665;51.558;-0.448;2023-02-04T14:52:41;3.15;;;1.35;;
60831;SDS011;46665;51.558;-0.448;2023-02-04T14:55:25;2.92;;;1.23;;
60831;SDS011;46665;51.558;-0.448;2023-02-04T14:58:10;1.05;;;0.70;;
60831;SDS011;46665;51.558;-0.448;2023-02-04T15:00:54;2.58;;;0.93;;
60831;SDS011;46665;51.558;-0.448;2023-02-04T15:03:38;1.85;;;0.88;;
60831;SDS011;46665;51.558;-0.448;2023-02-04T15:06:22;0.80;;;0.80;;
60831;SDS011;46665;51.558;-0.448;2023-02-04T15:09:06;0.65;;;0.65;;
60831;SDS011;46665;51.558;-0.448;2023-02-04T15:11:51;1.95;;;1.13;;
60831;SDS011;46665;51.558;-0.448;2023-02-04T15:14:35;2.38;;;1.00;;
60831;SDS011;46665;51.558;-0.448;2023-02-04T15:17:20;1.38;;;0.68;;
60831;SDS011;46665;51.558;-0.448;2023-02-04T15:20:04;3.85;;;1.17;;
60831;SDS011;46665;51.558;-0.448;2023-02-04T15:22:48;0.60;;;0.60;;
60831;SDS011;46665;51.558;-0.448;2023-02-04T15:25:35;2.33;;;1.00;;
60831;SDS011;46665;51.558;-0.448;2023-02-04T15:28:19;0.68;;;0.68;;
60831;SDS011;46665;51.558;-0.448;2023-02-04T15:31:03;0.45;;;0.45;;
60831;SDS011;46665;51.558;-0.448;2023-02-04T15:33:47;1.38;;;0.90;;
60831;SDS011;46665;51.558;-0.448;2023-02-04T15:36:31;1.00;;;1.00;;
60831;SDS011;46665;51.558;-0.448;2023-02-04T15:39:15;3.88;;;1.30;;
60831;SDS011;46665;51.558;-0.448;2023-02-04T15:41:59;1.20;;;0.70;;
60831;SDS011;46665;51.558;-0.448;2023-02-04T15:44:43;0.77;;;0.70;;
60831;SDS011;46665;51.558;-0.448;2023-02-04T15:47:27;1.05;;;1.00;;
60831;SDS011;46665;51.558;-0.448;2023-02-04T15:50:11;0.88;;;0.88;;
60831;SDS011;46665;51.558;-0.448;2023-02-04T15:52:57;2.75;;;1.17;;
60831;SDS011;46665;51.558;-0.448;2023-02-04T15:55:41;0.70;;;0.70;;
60831;SDS011;46665;51.558;-0.448;2023-02-04T15:58:26;5.60;;;1.30;;
60831;SDS011;46665;51.558;-0.448;2023-02-04T16:01:10;6.65;;;1.15;;
60831;SDS011;46665;51.558;-0.448;2023-02-04T16:03:54;1.33;;;0.82;;
60831;SDS011;46665;51.558;-0.448;2023-02-04T16:06:39;1.20;;;0.90;;
60831;SDS011;46665;51.558;-0.448;2023-02-04T16:09:23;4.28;;;1.20;;
60831;SDS011;46665;51.558;-0.448;2023-02-04T16:12:08;3.35;;;2.03;;
60831;SDS011;46665;51.558;-0.448;2023-02-04T16:14:52;2.78;;;1.60;;
60831;SDS011;46665;51.558;-0.448;2023-02-04T16:17:36;2.92;;;1.63;;
60831;SDS011;46665;51.558;-0.448;2023-02-04T16:20:21;1.35;;;1.25;;
60831;SDS011;46665;51.558;-0.448;2023-02-04T16:23:05;2.10;;;1.77;;
60831;SDS011;46665;51.558;-0.448;2023-02-04T16:25:50;9.13;;;2.67;;
60831;SDS011;46665;51.558;-0.448;2023-02-04T16:28:34;5.32;;;2.58;;
60831;SDS011;46665;51.558;-0.448;2023-02-04T16:31:18;9.43;;;3.85;;
60831;SDS011;46665;51.558;-0.448;2023-02-04T16:34:02;3.85;;;2.22;;